AirNav   Pilot Hours Calculator
 
 1145 users online  

1M3 Ardmore Airport
Ardmore, Alabama, USA

GOING TO ARDMORE?


FAA INFORMATION EFFECTIVE 25 MARCH 2021

Location

FAA Identifier: 1M3
Lat/Long: 34-58-44.7000N 086-52-59.8000W
34-58.745000N 086-52.996667W
34.9790833,-86.8832778
(estimated)
Elevation: 922 ft. / 281 m (estimated)
Variation: 00W (1985)
From city: 2 miles SW of ARDMORE, AL
Time zone: UTC -5 (UTC -6 during Standard Time)
Zip code: 35739

Airport Operations

Airport use: Open to the public
Activation date: 10/1964
Control tower: no
ARTCC: MEMPHIS CENTER
FSS: ANNISTON FLIGHT SERVICE STATION
NOTAMs facility: ANB (NOTAM-D service available)
Attendance: MON-FRI DAYLIGHT HOURS
Wind indicator: yes
Segmented circle: no

Airport Communications

CTAF: 122.9
HUNTSVILLE APPROACH: 125.6
HUNTSVILLE DEPARTURE: 125.6
WX AWOS-3 at GZS (14 nm NW): 118.275 (931-363-6760)
WX AWOS-3 at FYM (16 nm E): 135.275 (931-433-5916)
WX AWOS-3PT at MDQ (18 nm SE): 120.000 (256-829-1242)
WX ASOS at DCU (20 nm S): 118.375 (256-350-4270)
  • APCH/DEP SVC PRVDD BY MEMPHIS ARTCC ON FREQS 120.8/307.0 (HUNTSVILLE RCAG) WHEN HUNTSVILLE APCH CTL CLSD.

Nearby radio navigation aids

VOR radial/distance  VOR name  Freq  Var
RQZr310/16.4ROCKET VORTAC112.2002E
DCUr009/20.0DECATUR VOR/DME112.8001W
MSLr060/34.1MUSCLE SHOALS VORTAC116.5001E

Airport Services

Parking: tiedowns

Runway Information

Runway 1/19

Dimensions: 2700 x 100 ft. / 823 x 30 m
Surface: turf, in fair condition
Runway edge markings: RY 01/19 MARKINGS FADED.
RY 01/19 MARKED WITH ORANGE CONES, THLD AND TWY MARKED WITH WHITE CONES.
RUNWAY 1  RUNWAY 19
Latitude: 34-58.526242N34-58.962733N
Longitude: 086-53.050312W086-52.943867W
Elevation: 922.0 ft.901.0 ft.
Traffic pattern: leftleft
Runway heading: 011 magnetic, 011 true191 magnetic, 191 true
Markings: NSTD, in poor conditionNSTD, in poor condition
Obstructions: 51 ft. tree, 474 ft. from runway, 120 ft. left of centerline, 9:1 slope to clear64 ft. tree, 1522 ft. from runway, 73 ft. right of centerline, 23:1 slope to clear

Airport Ownership and Management from official FAA records

Ownership: Privately-owned
Owner: LORETTA TRULSON
28825 AIRPORT LANE
ARDMORE, AL 35739
Phone 256-423-2736
Manager: LORETTA TRULSON
ARDMORE AVN, 28825 ARPT LANE
ARDMORE, AL 35739
Phone 256-423-2736

Additional Remarks

FOR CD CTC HUNTSVILLE APCH AT 256-542-2070, WHEN APCH CLSD CTC MEMPHIS ARTCC AT 901-368-8453.

Instrument Procedures

There are no published instrument procedures at 1M3.

Some nearby airports with instrument procedures:

KGZS - Abernathy Field Airport (14 nm NW)
KFYM - Fayetteville Municipal Airport (16 nm E)
KMDQ - Huntsville Executive Airport / Tom Sharp Jr Field (18 nm SE)
KDCU - Pryor Field Regional Airport (20 nm S)
KHUA - Redstone Army Airfield (21 nm SE)
 
Loc | Ops | Rwys | IFR | FBO | Links
Com | Nav | Svcs | Stats | Notes
Area around 1M3 (Ardmore Airport)
 
Road maps at: MapQuest Bing Google
 
Aerial photo
WARNING: Photo may not be current or correct
Aerial photo of 1M3 (Ardmore Airport)
Photo courtesy of the Huntsville Flight Center
Photo taken 26-Nov-2008

Do you have a better or more recent aerial photo of Ardmore Airport that you would like to share? If so, please send us your photo.

 
Sectional chart

 
Airport distance calculator
Flying to Ardmore Airport? Find the distance to fly.

From to 1M3

Sunrise and sunset
Times for 16-Apr-2021
 Local
(UTC-5)
 Zulu
(UTC)
Morning civil twilight05:4910:49
Sunrise06:1511:15
Sunset19:1900:19
Evening civil twilight19:4600:46

Current date and time
Zulu (UTC)  17-Apr-2021 00:51:14
Local (UTC-5)  16-Apr-2021 19:51:14
 
METAR
KGZS 
14nm NW 
170035Z AUTO 00000KT 10SM CLR 14/07 A2987 RMK A01
KFYM 
16nm E 
170035Z AUTO 01004KT 10SM CLR 15/01 A2989 RMK A01
KMDQ 
18nm E 
170035Z AUTO 00000KT 10SM CLR 14/05 A2987 RMK A02 T01430045
KDCU 
20nm S 
162353Z AUTO 31004KT 10SM CLR 16/04 A2988 RMK AO2 SLP117 T01610044 10183 20161 53002
KHSV 
20nm S 
162353Z 30004KT 10SM BKN200 OVC250 16/06 A2987 RMK AO2 SLP113 T01560056 10183 20156 51001
KHUA 
21nm SE 
162358Z AUTO 29005KT 9SM FEW180 16/04 A2986 RMK AO2 SLP112 T01590041 10181 20159 50003
K2M2 
24nm NW 
170035Z AUTO 00000KT 10SM CLR 15/06 A2987 RMK A01
TAF
KHSV 
20nm S 
161720Z 1618/1718 10007KT P6SM BKN150 FM170400 07003KT P6SM OVC090 FM171300 VRB03KT P6SM SCT016 OVC040 PROB30 1713/1718 5SM -RA BR BKN016
NOTAMs
Click for the latest NOTAMs
NOTAMs are issued by the DoD/FAA and will open in a separate window not controlled by AirNav.

 

 
 

Aviation Businesses, Services, and Facilities

  
 Business Name 
 
 Contact 
 
 Services / Description 
 
Distance
 
Comments
  
Ardmore Aviation 256-423-2736
no information available

If you are affiliated with Ardmore Aviation and would like to show here your services, contact info, web link, logo, and more, click here
on airport  
   write
 

Would you like to see your business listed on this page?

 If your business provides an interesting product or service to pilots, flight crews, aircraft, or users of the Ardmore Airport, you should consider listing it here.  To start the listing process, click on the button below
 
Add a business
 

Other Pages about Ardmore Airport

Update a link
 
Copyright © AirNav, LLC. All rights reserved. Privacy Policy  Contact